ADDS METAR Data INFO
IDs: Format: Raw Decoded Include TAF

Data at: 0318 UTC 16 Dec 2017

KAAF 160253Z AUTO 34004KT 10SM OVC070 12/04 A3019 RMK AO2 SLP224 T01220044 53013
KAAF 160153Z AUTO 34003KT 10SM OVC070 12/04 A3017 RMK AO2 SLP216 T01220044
KAAF 160053Z AUTO 01006KT 10SM OVC075 13/04 A3016 RMK AO2 SLP213 T01280039
KAAF 152353Z AUTO 36006KT 10SM OVC075 13/04 A3016 RMK AO2 SLP211 T01330044 10206 20133 53023
KAAF 152253Z AUTO 01007KT 10SM OVC085 14/07 A3012 RMK AO2 SLP199 T01390067
KAAF 152153Z AUTO 34007KT 10SM OVC090 15/08 A3011 RMK AO2 SLP195 T01500078
KAAF 152053Z AUTO 33006KT 10SM OVC100 17/07 A3009 RMK AO2 SLP187 T01670067 53001
KAAF 151953Z AUTO 32007KT 10SM FEW060 OVC100 18/06 A3008 RMK AO2 SLP187 T01830061
KAAF 151853Z AUTO 32009KT 10SM OVC110 21/06 A3007 RMK AO2 SLP182 T02060056
KAAF 151753Z AUTO 33007KT 10SM CLR 19/08 A3008 RMK AO2 SLP186 T01940083 10200 20128 50001
KAAF 151653Z AUTO 34006KT 10SM FEW060 20/08 A3010 RMK AO2 SLP193 T02000083
KAAF 151553Z AUTO 34007KT 10SM FEW020 19/06 A3010 RMK AO2 SLP193 T01890061
KAAF 151453Z AUTO 36008KT 10SM CLR 18/06 A3008 RMK AO2 SLP185 T01780061 53016
KAAF 151353Z AUTO 01003KT 10SM FEW017 SCT028 14/12 A3006 RMK AO2 SLP178 T01440122
KAAF 151253Z AUTO 01003KT 10SM FEW019 13/13 A3004 RMK AO2 SLP171 T01280128
KAAF 151216Z AUTO 35003KT 10SM FEW018 BKN036 OVC047 14/13 A3003 RMK AO2 T01390133
KAAF 151209Z AUTO 02004KT 10SM BKN022 BKN034 OVC046 13/13 A3003 RMK AO2 T01330133
KAAF 151201Z AUTO 01004KT 10SM SCT022 BKN036 OVC046 13/13 A3003 RMK AO2 T01330133
KAAF 151153Z AUTO 03003KT 10SM BKN022 BKN031 OVC040 13/13 A3003 RMK AO2 SLP169 T01280128 10128 20106 51005
KAAF 151150Z AUTO 36004KT 10SM BKN022 BKN031 OVC040 13/13 A3003 RMK AO2
KAAF 151053Z AUTO 00000KT 10SM SCT034 12/12 A3002 RMK AO2 SLP164 T01170117
KAAF 150953Z AUTO 33004KT 10SM CLR 12/12 A3002 RMK AO2 SLP164 T01220122
KAAF 150853Z AUTO 00000KT 10SM CLR 11/11 A3001 RMK AO2 SLP161 T01060106 56007
KAAF 150753Z AUTO 00000KT 10SM BKN110 12/12 A3001 RMK AO2 SLP161 T01170117
KAAF 150653Z AUTO 00000KT 10SM FEW120 11/11 A3002 RMK AO2 SLP166 T01110111
KAAF 150553Z AUTO 18003KT 10SM SCT120 11/11 A3003 RMK AO2 SLP167 T01060106 10156 20106 58004
KAAF 150453Z AUTO 18005KT 10SM CLR 11/11 A3003 RMK AO2 SLP170 T01110111 402060061
KAAF 150353Z AUTO 19003KT 10SM CLR 12/12 A3005 RMK AO2 SLP174 T01170117
KAAF 150253Z AUTO 00000KT 10SM CLR 13/12 A3004 RMK AO2 SLP172 T01330122 50007
KAAF 150153Z AUTO 00000KT 10SM CLR 13/13 A3004 RMK AO2 SLP173 T01330128
KAAF 150053Z AUTO 00000KT 10SM CLR 15/13 A3003 RMK AO2 SLP169 T01500133
KAAF 142353Z AUTO 18003KT 10SM OVC038 16/13 A3002 RMK AO2 SLP164 T01560133 10206 20156 53009
KAAF 142253Z AUTO 26003KT 10SM OVC039 16/14 A3000 RMK AO2 SLP160 T01610139
KAAF 142153Z AUTO 23004KT 10SM FEW055 17/13 A3000 RMK AO2 SLP158 T01670133
KAAF 142053Z AUTO 25005KT 10SM CLR 18/13 A2999 RMK AO2 SLP155 T01830128 55004
KAAF 141953Z AUTO 25009KT 10SM CLR 19/11 A2998 RMK AO2 SLP150 T01940111
KAAF 141853Z AUTO 20008KT 10SM CLR 18/13 A2998 RMK AO2 SLP152 T01780133
KAAF 141753Z AUTO 23010KT 10SM CLR 20/12 A3000 RMK AO2 SLP159 T02000122 10206 20067 58012
KAAF 141653Z AUTO 31008KT 10SM CLR 20/12 A3002 RMK AO2 SLP166 T02000122
KAAF 141553Z AUTO 34009KT 10SM CLR 18/12 A3003 RMK AO2 SLP170 T01830117